Time;durP1;ratioP1;P1;durP2;ratioP2;P2;SDS_P1;SDS_P2;PMS_P1;PMS_P2;Temp;Humidity;BMP_temperature;BMP_pressure;BME280_temperature;BME280_humidity;BME280_pressure;Samples;Min_cycle;Max_cycle;Signal;HPM_P1;HPM_P2
2021/12/31 00:00:46;;;;;;;11.65;3.60;;;;;;;18.90;100.00;101605.03;5097022;28;20541;-56
2021/12/31 00:03:12;;;;;;;14.10;4.93;;;;;;;18.97;100.00;101608.47;5095462;28;20036;-55
2021/12/31 00:05:38;;;;;;;9.47;3.20;;;;;;;18.81;100.00;101606.44;5097213;28;20040;-55
2021/12/31 00:08:04;;;;;;;21.63;4.45;;;;;;;18.96;100.00;101620.38;5095034;28;20445;-53
2021/12/31 00:10:29;;;;;;;7.63;3.45;;;;;;;18.60;100.00;101601.34;5096631;28;20066;-55
2021/12/31 00:12:56;;;;;;;7.07;3.15;;;;;;;18.95;100.00;101607.06;5097267;28;20047;-52
2021/12/31 00:15:22;;;;;;;9.67;3.13;;;;;;;18.74;100.00;101615.50;5078423;28;20086;-54
2021/12/31 00:17:48;;;;;;;13.43;3.22;;;;;;;18.64;100.00;101617.94;5095464;28;20244;-55
2021/12/31 00:20:18;;;;;;;8.90;3.05;;;;;;;18.90;100.00;101614.00;5078552;28;20043;-55
2021/12/31 00:25:15;;;;;;;13.40;3.53;;;;;;;18.89;100.00;101611.50;5096207;28;20036;-55
2021/12/31 00:27:40;;;;;;;15.00;3.47;;;;;;;19.18;100.00;101611.72;5097028;28;20443;-55
2021/12/31 00:30:07;;;;;;;9.38;3.35;;;;;;;18.91;100.00;101606.69;5095380;28;20047;-56
2021/12/31 00:32:33;;;;;;;8.23;2.93;;;;;;;18.67;100.00;101622.88;5096722;28;20043;-56
2021/12/31 00:34:59;;;;;;;7.07;2.88;;;;;;;18.77;100.00;101622.31;5103804;28;20032;-56
2021/12/31 00:37:30;;;;;;;14.45;3.85;;;;;;;18.85;100.00;101613.03;5096949;28;20115;-56
2021/12/31 00:39:55;;;;;;;7.70;2.70;;;;;;;18.89;100.00;101628.59;5095771;28;20044;-55
2021/12/31 00:42:21;;;;;;;10.95;2.97;;;;;;;18.63;100.00;101617.13;5096450;28;20455;-53
2021/12/31 00:44:47;;;;;;;5.47;2.67;;;;;;;18.80;100.00;101626.47;5095580;28;20399;-53
2021/12/31 00:47:13;;;;;;;8.95;3.05;;;;;;;18.70;100.00;101625.16;5095608;28;20047;-53
2021/12/31 00:49:38;;;;;;;14.52;3.00;;;;;;;18.81;100.00;101619.97;5094506;28;20137;-55
2021/12/31 00:52:04;;;;;;;10.17;2.70;;;;;;;18.84;100.00;101628.50;5095442;28;20135;-55
2021/12/31 00:54:29;;;;;;;9.63;3.28;;;;;;;18.98;100.00;101622.84;5095842;28;20062;-56
2021/12/31 00:57:02;;;;;;;10.23;3.53;;;;;;;18.56;100.00;101621.78;5094745;28;20036;-55
2021/12/31 00:59:28;;;;;;;10.70;3.03;;;;;;;18.61;100.00;101626.53;5095091;28;20043;-54
2021/12/31 01:01:53;;;;;;;6.47;2.70;;;;;;;18.69;100.00;101618.09;5077230;28;20044;-56
2021/12/31 01:04:21;;;;;;;10.13;2.97;;;;;;;18.58;100.00;101626.97;5095819;28;20464;-55
2021/12/31 01:06:47;;;;;;;6.97;2.83;;;;;;;18.92;100.00;101628.13;5095469;28;20121;-55
2021/12/31 01:09:13;;;;;;;8.15;3.30;;;;;;;18.75;100.00;101632.56;5095742;28;20289;-55
2021/12/31 01:11:42;;;;;;;11.60;3.15;;;;;;;18.71;100.00;101615.97;5095521;28;20135;-56
2021/12/31 01:14:15;;;;;;;8.03;2.90;;;;;;;19.28;100.00;101617.38;5095470;28;20068;-54
2021/12/31 01:16:47;;;;;;;9.93;3.10;;;;;;;18.66;100.00;101621.22;5095016;28;20300;-54
2021/12/31 01:21:38;;;;;;;9.27;3.70;;;;;;;18.62;100.00;101609.22;5094257;28;20260;-54
2021/12/31 01:24:04;;;;;;;10.23;3.73;;;;;;;18.38;100.00;101613.72;5076969;28;20434;-55
2021/12/31 01:26:31;;;;;;;9.77;3.45;;;;;;;18.67;100.00;101606.63;5094654;28;20036;-55
2021/12/31 01:28:57;;;;;;;9.67;4.10;;;;;;;18.86;100.00;101607.41;5095352;28;20035;-53
2021/12/31 01:31:24;;;;;;;14.38;4.55;;;;;;;18.38;100.00;101608.31;5093739;28;20044;-54
2021/12/31 01:33:50;;;;;;;13.73;4.50;;;;;;;18.69;100.00;101615.38;5095149;28;20123;-55
2021/12/31 01:36:15;;;;;;;12.60;3.97;;;;;;;18.95;100.00;101613.31;5094601;28;20328;-54
2021/12/31 01:38:41;;;;;;;11.73;3.60;;;;;;;18.64;100.00;101623.34;5094546;28;20040;-54
2021/12/31 01:41:06;;;;;;;13.07;3.03;;;;;;;18.65;100.00;101614.16;5094684;28;20047;-52
2021/12/31 01:43:32;;;;;;;6.97;2.33;;;;;;;18.58;100.00;101608.84;5094990;28;20028;-54
2021/12/31 01:46:00;;;;;;;9.65;3.33;;;;;;;18.56;100.00;101610.94;5095151;28;20043;-56
2021/12/31 01:48:47;;;;;;;8.07;2.57;;;;;;;18.71;100.00;101629.50;5093360;28;20127;-56
2021/12/31 01:51:13;;;;;;;9.88;2.80;;;;;;;18.72;100.00;101631.16;5094407;28;20040;-53
2021/12/31 01:53:38;;;;;;;7.72;2.67;;;;;;;18.57;100.00;101638.88;5093114;28;20516;-53
2021/12/31 01:56:05;;;;;;;4.10;2.37;;;;;;;18.92;100.00;101638.16;5094827;28;20047;-54
2021/12/31 01:58:30;;;;;;;8.83;2.80;;;;;;;18.72;100.00;101647.41;5094708;28;20114;-54
2021/12/31 02:00:58;;;;;;;7.18;2.58;;;;;;;18.75;100.00;101646.94;5094067;28;20044;-55
2021/12/31 02:03:24;;;;;;;6.03;2.60;;;;;;;18.82;100.00;101648.72;5092851;28;20040;-55
2021/12/31 02:05:50;;;;;;;6.40;2.57;;;;;;;18.99;100.00;101644.34;5093945;28;20491;-52
2021/12/31 02:08:16;;;;;;;9.43;3.35;;;;;;;18.86;100.00;101653.47;5076294;28;20040;-53
2021/12/31 02:10:42;;;;;;;5.73;1.97;;;;;;;18.67;100.00;101638.31;5095044;28;20060;-55
2021/12/31 02:13:09;;;;;;;6.35;2.30;;;;;;;18.87;100.00;101643.44;5095048;28;20342;-56
2021/12/31 02:15:35;;;;;;;6.63;2.50;;;;;;;18.78;100.00;101646.50;5094162;28;20074;-55
2021/12/31 02:18:03;;;;;;;8.13;2.72;;;;;;;19.08;100.00;101639.41;5092842;28;20492;-54
2021/12/31 02:20:55;;;;;;;11.03;2.30;;;;;;;19.16;100.00;101640.97;5093842;28;20062;-51
2021/12/31 02:23:31;;;;;;;8.60;2.70;;;;;;;18.93;100.00;101634.41;5089893;28;20283;-53
2021/12/31 02:25:57;;;;;;;7.47;2.30;;;;;;;19.02;100.00;101624.91;5093250;28;20376;-52
2021/12/31 02:28:22;;;;;;;10.53;2.47;;;;;;;18.92;100.00;101635.47;5093801;28;20222;-53
2021/12/31 02:30:48;;;;;;;10.03;2.83;;;;;;;18.76;100.00;101628.78;5093596;28;20280;-56
2021/12/31 02:33:13;;;;;;;6.72;2.25;;;;;;;19.24;100.00;101632.47;5076423;28;20118;-51
2021/12/31 02:35:39;;;;;;;6.13;2.33;;;;;;;18.88;100.00;101632.38;5093889;28;20052;-52
2021/12/31 02:38:07;;;;;;;7.90;2.38;;;;;;;18.99;100.00;101632.66;5093631;28;20040;-54
2021/12/31 02:40:35;;;;;;;6.27;2.07;;;;;;;19.00;100.00;101623.47;5092590;28;20464;-54
2021/12/31 02:43:01;;;;;;;8.57;2.60;;;;;;;18.85;100.00;101627.44;5094294;28;20047;-54
2021/12/31 02:45:32;;;;;;;7.15;2.45;;;;;;;18.63;100.00;101632.53;5093443;28;20040;-57
2021/12/31 02:48:00;;;;;;;8.63;2.40;;;;;;;18.62;100.00;101636.28;5092919;28;20422;-54
2021/12/31 02:50:33;;;;;;;9.07;2.73;;;;;;;18.50;100.00;101633.53;5094002;28;20032;-54
2021/12/31 02:53:04;;;;;;;5.50;2.47;;;;;;;18.86;100.00;101625.53;5092177;28;20082;-56
2021/12/31 02:55:30;;;;;;;6.90;2.90;;;;;;;19.05;100.00;101620.91;5093812;28;20272;-54
2021/12/31 02:58:00;;;;;;;15.70;3.03;;;;;;;18.72;100.00;101627.63;5075840;28;20067;-56
2021/12/31 03:00:26;;;;;;;11.93;3.43;;;;;;;18.73;100.00;101635.53;5094016;28;20264;-56
2021/12/31 03:02:52;;;;;;;6.70;3.90;;;;;;;18.73;100.00;101621.13;5092806;28;20039;-56
2021/12/31 03:05:18;;;;;;;10.38;4.18;;;;;;;18.86;100.00;101622.81;5094394;28;20172;-56
2021/12/31 03:07:47;;;;;;;12.48;4.32;;;;;;;18.81;100.00;101626.25;5094314;28;20100;-52
2021/12/31 03:10:14;;;;;;;11.70;4.03;;;;;;;18.93;100.00;101618.13;5093572;28;20043;-53
2021/12/31 03:12:41;;;;;;;11.00;3.63;;;;;;;18.96;100.00;101625.81;5093251;28;20317;-55
2021/12/31 03:15:08;;;;;;;7.47;3.33;;;;;;;19.00;100.00;101629.72;5093293;28;20319;-55
2021/12/31 03:17:35;;;;;;;9.80;3.10;;;;;;;19.16;100.00;101619.25;5075566;28;20043;-54
2021/12/31 03:20:16;;;;;;;7.22;3.10;;;;;;;18.90;100.00;101610.44;5093413;28;20624;-54
2021/12/31 03:22:43;;;;;;;7.77;2.53;;;;;;;18.81;100.00;101609.97;5093270;28;20115;-53
2021/12/31 03:25:10;;;;;;;6.13;2.47;;;;;;;18.95;100.00;101607.88;5093310;28;20032;-54
2021/12/31 03:27:36;;;;;;;10.37;1.93;;;;;;;18.80;100.00;101615.63;5093352;28;20068;-52
2021/12/31 03:30:03;;;;;;;;;;;;;;;19.16;100.00;101616.56;5093822;28;20284;-55
2021/12/31 03:32:29;;;;;;;4.90;2.10;;;;;;;18.82;100.00;101603.50;5093051;28;19912;-54
2021/12/31 03:34:54;;;;;;;4.87;2.10;;;;;;;18.88;100.00;101605.28;5093599;28;20264;-54
2021/12/31 03:37:19;;;;;;;8.23;2.70;;;;;;;18.81;100.00;101606.44;5093048;28;20067;-51
2021/12/31 03:39:45;;;;;;;6.95;2.50;;;;;;;18.96;100.00;101604.13;5092382;28;20484;-51
2021/12/31 03:42:15;;;;;;;7.35;2.25;;;;;;;18.57;100.00;101601.78;5094339;28;20047;-54
2021/12/31 03:44:41;;;;;;;7.27;2.23;;;;;;;18.63;100.00;101600.03;5095722;28;20051;-58
2021/12/31 03:47:07;;;;;;;9.30;2.23;;;;;;;18.52;100.00;101592.69;5095854;28;20036;-56
2021/12/31 03:49:32;;;;;;;12.88;3.25;;;;;;;19.03;100.00;101599.44;5098615;28;20518;-54
2021/12/31 03:51:58;;;;;;;9.45;2.72;;;;;;;18.55;100.00;101594.94;5097479;28;20404;-54
2021/12/31 03:54:23;;;;;;;6.30;2.50;;;;;;;18.96;100.00;101593.28;5096938;28;20113;-55
2021/12/31 03:56:49;;;;;;;6.72;2.10;;;;;;;18.79;100.00;101587.69;5095418;28;20280;-54
2021/12/31 03:59:14;;;;;;;5.53;1.92;;;;;;;18.82;100.00;101599.97;5096815;28;20039;-52
2021/12/31 04:01:40;;;;;;;12.00;2.47;;;;;;;18.48;100.00;101587.75;5096520;28;20542;-52
2021/12/31 04:04:07;;;;;;;6.47;2.30;;;;;;;18.66;100.00;101586.00;5096982;28;20343;-52
2021/12/31 04:06:34;;;;;;;12.77;2.53;;;;;;;18.76;100.00;101590.88;5096562;28;20487;-53
2021/12/31 04:08:59;;;;;;;10.43;2.67;;;;;;;18.53;100.00;101580.81;5095204;28;20040;-55
2021/12/31 04:11:25;;;;;;;7.97;2.60;;;;;;;18.51;100.00;101585.63;5096763;28;20119;-55
2021/12/31 04:13:50;;;;;;;13.55;2.03;;;;;;;18.36;100.00;101577.94;5096830;28;20061;-53
2021/12/31 04:16:16;;;;;;;6.30;2.17;;;;;;;18.70;100.00;101584.50;5095335;28;20048;-54
2021/12/31 04:18:42;;;;;;;10.60;2.58;;;;;;;18.74;100.00;101585.69;5096535;28;20272;-55
2021/12/31 04:21:07;;;;;;;9.23;2.37;;;;;;;18.68;100.00;101586.59;5096476;28;20036;-55
2021/12/31 04:23:36;;;;;;;7.82;2.45;;;;;;;18.66;100.00;101583.31;5096391;28;20622;-54
2021/12/31 04:26:03;;;;;;;7.70;2.30;;;;;;;18.59;100.00;101588.00;5096085;28;20040;-56
2021/12/31 04:28:29;;;;;;;10.48;2.88;;;;;;;18.58;100.00;101580.94;5095994;28;20078;-56
2021/12/31 04:30:56;;;;;;;;;;;;;;;18.48;100.00;101576.06;5096291;28;20146;-55
2021/12/31 04:33:21;;;;;;;9.88;2.38;;;;;;;18.74;100.00;101584.84;5094969;28;19911;-55
2021/12/31 04:35:47;;;;;;;5.37;2.43;;;;;;;18.83;100.00;101578.06;5095894;28;20556;-56
2021/12/31 04:38:12;;;;;;;7.90;2.47;;;;;;;18.64;100.00;101590.84;5078600;28;20276;-54
2021/12/31 04:40:38;;;;;;;9.63;2.22;;;;;;;18.53;100.00;101578.91;5078206;28;20281;-55
2021/12/31 04:43:03;;;;;;;6.97;2.38;;;;;;;18.64;100.00;101577.28;5096510;28;20063;-51
2021/12/31 04:45:29;;;;;;;9.20;2.23;;;;;;;18.63;100.00;101586.47;5061081;28;20054;-57
2021/12/31 04:47:54;;;;;;;5.55;2.08;;;;;;;18.44;100.00;101581.13;5077474;28;20326;-55
2021/12/31 04:50:20;;;;;;;11.13;2.55;;;;;;;18.82;100.00;101573.69;5094384;28;20066;-54
2021/12/31 04:52:46;;;;;;;14.18;2.53;;;;;;;18.69;100.00;101580.16;5095277;28;20040;-55
2021/12/31 04:55:12;;;;;;;8.93;2.83;;;;;;;18.44;100.00;101580.31;5095123;28;20051;-54
2021/12/31 04:57:38;;;;;;;8.85;2.47;;;;;;;18.63;100.00;101594.59;5077467;28;20036;-52
2021/12/31 05:00:05;;;;;;;6.40;2.30;;;;;;;18.58;100.00;101584.47;5095098;28;20032;-55
2021/12/31 05:02:31;;;;;;;6.90;2.57;;;;;;;18.61;100.00;101591.31;5095679;28;20379;-54
2021/12/31 05:04:56;;;;;;;10.63;2.60;;;;;;;18.42;100.00;101591.34;5094686;28;20367;-55
2021/12/31 05:07:22;;;;;;;5.80;2.30;;;;;;;18.71;100.00;101588.03;5096246;28;20039;-56
2021/12/31 05:09:47;;;;;;;8.20;2.70;;;;;;;18.70;100.00;101583.69;5096019;28;20670;-56
2021/12/31 05:12:19;;;;;;;8.00;2.40;;;;;;;18.71;100.00;101583.44;5094001;28;20344;-57
2021/12/31 05:14:45;;;;;;;8.33;2.20;;;;;;;18.61;100.00;101573.19;5095808;28;20094;-56
2021/12/31 05:17:11;;;;;;;10.40;2.70;;;;;;;18.75;100.00;101571.09;5095006;28;20336;-57
2021/12/31 05:19:36;;;;;;;10.10;2.80;;;;;;;18.52;100.00;101576.44;5094945;28;20130;-56
2021/12/31 05:22:02;;;;;;;8.25;3.80;;;;;;;18.28;100.00;101554.72;5077254;28;20044;-56
2021/12/31 05:24:28;;;;;;;6.68;2.60;;;;;;;18.32;100.00;101553.19;5077357;28;20127;-55
2021/12/31 05:26:54;;;;;;;8.63;2.97;;;;;;;18.23;100.00;101541.84;5094586;28;20135;-54
2021/12/31 05:29:19;;;;;;;12.27;3.63;;;;;;;18.57;100.00;101541.38;5095939;28;20034;-50
2021/12/31 05:31:45;;;;;;;10.37;3.00;;;;;;;18.33;100.00;101539.41;5093808;28;20193;-55
2021/12/31 05:34:10;;;;;;;9.32;3.00;;;;;;;18.56;100.00;101539.72;5094751;28;20586;-55
2021/12/31 05:36:35;;;;;;;6.70;3.07;;;;;;;18.38;100.00;101533.31;5093673;28;20090;-52
2021/12/31 05:39:01;;;;;;;7.93;2.30;;;;;;;18.10;100.00;101540.16;5094601;28;20616;-56
2021/12/31 05:41:28;;;;;;;5.03;2.45;;;;;;;18.20;100.00;101526.06;5094059;28;20070;-55
2021/12/31 05:43:54;;;;;;;9.80;3.20;;;;;;;18.18;100.00;101534.41;5094998;28;20055;-53
2021/12/31 05:46:20;;;;;;;8.23;2.40;;;;;;;18.04;100.00;101525.66;5094426;28;20379;-52
2021/12/31 05:48:45;;;;;;;6.15;2.30;;;;;;;18.23;100.00;101533.72;5094414;28;20123;-53
2021/12/31 05:51:10;;;;;;;8.53;2.63;;;;;;;18.21;100.00;101546.66;5094168;28;20036;-56
2021/12/31 05:53:36;;;;;;;6.37;2.40;;;;;;;18.25;100.00;101539.75;5093412;28;20269;-56
2021/12/31 05:56:01;;;;;;;7.30;2.27;;;;;;;18.42;100.00;101539.09;5094512;28;20315;-56
2021/12/31 05:58:27;;;;;;;7.82;2.45;;;;;;;18.42;100.00;101534.50;5093242;28;20055;-55
2021/12/31 06:00:52;;;;;;;8.23;2.80;;;;;;;18.28;100.00;101541.97;5093792;28;20044;-55
2021/12/31 06:03:18;;;;;;;5.43;2.40;;;;;;;18.29;100.00;101545.53;5093489;28;20276;-56
2021/12/31 06:05:43;;;;;;;5.47;2.55;;;;;;;18.39;100.00;101543.06;5093899;28;20119;-54
2021/12/31 06:08:09;;;;;;;9.48;3.08;;;;;;;18.54;100.00;101544.53;5093188;28;20059;-54
2021/12/31 06:10:40;;;;;;;6.50;2.83;;;;;;;18.53;100.00;101540.19;5094235;28;20036;-55
2021/12/31 06:13:05;;;;;;;7.53;2.90;;;;;;;18.03;100.00;101548.34;5094058;28;20359;-55
2021/12/31 06:15:32;;;;;;;13.93;3.00;;;;;;;17.98;100.00;101555.47;5094203;28;20619;-54
2021/12/31 06:17:58;;;;;;;9.27;2.87;;;;;;;18.02;100.00;101562.94;5094691;28;20039;-55
2021/12/31 06:20:25;;;;;;;6.68;2.47;;;;;;;17.90;100.00;101556.63;5092866;28;20281;-55
2021/12/31 06:22:50;;;;;;;9.00;3.07;;;;;;;18.11;100.00;101558.03;5094316;28;20048;-53
2021/12/31 06:25:16;;;;;;;7.90;3.27;;;;;;;18.17;100.00;101559.03;5094089;28;20320;-52
2021/12/31 06:27:41;;;;;;;5.27;2.67;;;;;;;18.14;100.00;101552.16;5094304;28;20020;-55
2021/12/31 06:30:07;;;;;;;7.03;2.75;;;;;;;18.33;100.00;101552.13;5094017;28;20261;-53
2021/12/31 06:32:33;;;;;;;10.80;3.45;;;;;;;18.13;100.00;101561.34;5093679;28;20488;-53
2021/12/31 06:34:58;;;;;;;10.68;3.05;;;;;;;17.83;100.00;101551.28;5092945;28;20055;-54
2021/12/31 06:37:24;;;;;;;7.20;3.53;;;;;;;18.18;100.00;101553.34;5093998;28;20071;-55
2021/12/31 06:39:49;;;;;;;4.80;2.70;;;;;;;17.84;100.00;101560.22;5092596;28;20047;-53
2021/12/31 06:42:15;;;;;;;6.53;3.13;;;;;;;17.55;100.00;101541.84;5092937;28;20275;-50
2021/12/31 06:44:40;;;;;;;11.33;3.50;;;;;;;17.32;100.00;101537.09;5094301;28;20422;-54
2021/12/31 06:47:06;;;;;;;8.45;3.40;;;;;;;17.51;100.00;101535.22;5093446;28;20273;-55
2021/12/31 06:49:33;;;;;;;11.05;2.95;;;;;;;17.30;100.00;101539.19;5092508;28;20139;-53
2021/12/31 06:51:58;;;;;;;9.00;3.20;;;;;;;17.75;100.00;101551.59;5093306;28;20032;-54
2021/12/31 06:54:24;;;;;;;11.17;3.70;;;;;;;17.45;100.00;101544.22;5092244;28;20047;-53
2021/12/31 06:56:49;;;;;;;8.13;3.00;;;;;;;17.40;100.00;101546.78;5093685;28;20355;-56
2021/12/31 06:59:15;;;;;;;8.38;3.30;;;;;;;17.29;100.00;101559.16;5075546;28;20373;-52
2021/12/31 07:01:40;;;;;;;8.93;3.25;;;;;;;17.26;100.00;101552.31;5075547;28;20044;-54
2021/12/31 07:04:06;;;;;;;8.77;3.40;;;;;;;17.33;100.00;101547.69;5094148;28;20523;-53
2021/12/31 07:06:31;;;;;;;8.67;3.40;;;;;;;17.12;100.00;101529.19;5093966;28;20033;-55
2021/12/31 07:08:57;;;;;;;5.70;3.00;;;;;;;17.12;100.00;101531.88;5094022;28;20170;-52
2021/12/31 07:11:22;;;;;;;10.13;3.03;;;;;;;17.22;100.00;101521.38;5093021;28;20345;-53
2021/12/31 07:13:49;;;;;;;14.13;3.73;;;;;;;17.08;100.00;101527.97;5093350;28;20277;-56
2021/12/31 07:16:14;;;;;;;12.60;3.87;;;;;;;16.93;100.00;101531.81;5093235;28;20043;-55
2021/12/31 07:18:40;;;;;;;11.73;3.40;;;;;;;17.01;100.00;101528.03;5097121;28;20339;-55
2021/12/31 07:21:05;;;;;;;5.93;3.17;;;;;;;17.22;100.00;101529.47;5097737;28;20044;-54
2021/12/31 07:23:31;;;;;;;13.43;3.57;;;;;;;17.09;100.00;101538.53;5096271;28;20326;-55
2021/12/31 07:25:57;;;;;;;10.25;2.85;;;;;;;17.18;100.00;101529.13;5097046;28;20272;-55
2021/12/31 07:28:22;;;;;;;9.13;3.37;;;;;;;17.08;100.00;101525.28;5096091;28;20044;-51
2021/12/31 07:30:48;;;;;;;8.00;3.23;;;;;;;16.96;100.00;101520.56;5097552;28;20605;-52
2021/12/31 07:33:19;;;;;;;5.15;3.00;;;;;;;16.96;100.00;101528.66;5096957;28;20032;-55
2021/12/31 07:35:46;;;;;;;12.13;4.10;;;;;;;17.20;100.00;101537.84;5097800;28;20460;-56
2021/12/31 07:38:27;;;;;;;5.77;2.93;;;;;;;17.15;100.00;101526.84;5097374;28;20275;-53
2021/12/31 07:40:52;;;;;;;9.20;3.17;;;;;;;17.22;100.00;101526.78;5096937;28;20288;-53
2021/12/31 07:43:20;;;;;;;9.15;3.15;;;;;;;17.01;100.00;101528.03;5095767;28;20763;-55
2021/12/31 07:45:47;;;;;;;6.60;3.10;;;;;;;17.14;100.00;101529.78;5095693;28;20040;-56
2021/12/31 07:48:13;;;;;;;13.60;2.92;;;;;;;17.15;100.00;101539.53;5096243;28;20260;-55
2021/12/31 07:50:38;;;;;;;6.63;2.83;;;;;;;17.22;100.00;101543.00;5095787;28;20453;-54
2021/12/31 07:53:05;;;;;;;8.05;2.80;;;;;;;17.21;100.00;101530.53;5096677;28;20071;-56
2021/12/31 07:55:31;;;;;;;5.53;2.60;;;;;;;17.21;100.00;101560.25;5096562;28;20055;-53
2021/12/31 07:57:57;;;;;;;5.32;2.60;;;;;;;17.10;100.00;101558.31;5096507;28;20315;-56
2021/12/31 08:00:22;;;;;;;8.43;2.75;;;;;;;17.29;100.00;101561.84;5096475;28;20032;-55
2021/12/31 08:02:49;;;;;;;9.60;3.25;;;;;;;17.34;100.00;101568.25;5096776;28;20433;-52
2021/12/31 08:05:14;;;;;;;6.72;2.85;;;;;;;17.23;100.00;101576.28;5095600;28;20067;-55
2021/12/31 08:07:40;;;;;;;15.80;3.30;;;;;;;17.13;100.00;101553.25;5095591;28;20400;-56
2021/12/31 08:10:08;;;;;;;9.73;2.97;;;;;;;16.94;100.00;101552.38;5096479;28;20031;-51
2021/12/31 08:12:37;;;;;;;8.57;2.90;;;;;;;17.00;100.00;101559.63;5094857;28;20269;-55
2021/12/31 08:15:04;;;;;;;9.10;3.10;;;;;;;17.09;100.00;101554.75;5096821;28;20093;-51
2021/12/31 08:17:30;;;;;;;5.93;2.90;;;;;;;17.29;100.00;101580.78;5096005;28;20269;-52
2021/12/31 08:19:55;;;;;;;8.23;2.40;;;;;;;17.68;100.00;101548.13;5096040;28;20318;-51
2021/12/31 08:22:24;;;;;;;12.20;3.30;;;;;;;17.40;100.00;101560.28;5096073;28;20032;-52
2021/12/31 08:24:50;;;;;;;10.10;3.57;;;;;;;17.41;100.00;101561.94;5096416;28;20292;-53
2021/12/31 08:27:16;;;;;;;7.43;2.83;;;;;;;17.30;100.00;101577.88;5094727;28;20269;-53
2021/12/31 08:29:42;;;;;;;6.13;3.10;;;;;;;17.10;100.00;101569.94;5095985;28;20093;-52
2021/12/31 08:32:07;;;;;;;6.60;3.47;;;;;;;17.28;100.00;101574.53;5096427;28;20127;-53
2021/12/31 08:34:33;;;;;;;6.67;3.13;;;;;;;17.38;100.00;101575.91;5096066;28;20265;-55
2021/12/31 08:36:58;;;;;;;5.03;2.70;;;;;;;17.34;100.00;101579.06;5095743;28;20260;-54
2021/12/31 08:39:25;;;;;;;9.50;3.10;;;;;;;17.38;100.00;101578.63;5094924;28;20284;-55
2021/12/31 08:41:50;;;;;;;5.15;2.63;;;;;;;17.46;100.00;101576.47;5095717;28;20070;-54
2021/12/31 08:44:16;;;;;;;8.35;2.75;;;;;;;17.35;100.00;101579.88;5095849;28;20063;-55
2021/12/31 08:46:42;;;;;;;7.90;2.65;;;;;;;17.34;100.00;101576.38;5098807;28;20040;-55
2021/12/31 08:49:08;;;;;;;6.95;2.75;;;;;;;17.42;100.00;101574.41;5095690;28;20044;-56
2021/12/31 08:51:34;;;;;;;8.55;3.00;;;;;;;17.38;100.00;101565.91;5095539;28;20036;-54
2021/12/31 08:53:59;;;;;;;5.15;2.50;;;;;;;17.37;100.00;101574.25;5094217;28;20548;-55
2021/12/31 08:56:25;;;;;;;7.60;2.70;;;;;;;17.37;100.00;101572.38;5096209;28;20123;-55
2021/12/31 08:58:51;;;;;;;5.07;2.65;;;;;;;17.40;100.00;101560.28;5096157;28;20047;-53
2021/12/31 09:01:16;;;;;;;6.35;2.88;;;;;;;17.23;100.00;101565.47;5095037;28;20040;-51
2021/12/31 09:03:42;;;;;;;8.23;3.08;;;;;;;17.12;100.00;101542.69;5094179;28;20032;-52
2021/12/31 09:06:07;;;;;;;6.70;3.00;;;;;;;17.29;100.00;101534.81;5094801;28;20499;-52
2021/12/31 09:08:34;;;;;;;11.88;3.28;;;;;;;17.21;100.00;101546.75;5094249;28;20048;-54
2021/12/31 09:11:00;;;;;;;;;;;;;;;17.39;100.00;101548.63;5096106;28;20127;-53
2021/12/31 09:13:27;;;;;;;6.07;2.33;;;;;;;17.22;100.00;101545.69;5093799;28;19963;-52
2021/12/31 09:15:53;;;;;;;6.43;2.40;;;;;;;17.32;100.00;101558.72;5094131;28;20043;-53
2021/12/31 09:18:19;;;;;;;4.68;2.58;;;;;;;17.25;100.00;101560.66;5093791;28;20268;-53
2021/12/31 09:20:45;;;;;;;5.88;2.25;;;;;;;17.20;100.00;101575.66;5095191;28;20032;-56
2021/12/31 09:23:11;;;;;;;6.30;3.20;;;;;;;17.19;100.00;101554.25;5095178;28;20063;-53
2021/12/31 09:25:37;;;;;;;4.78;2.13;;;;;;;17.32;100.00;101554.13;5095010;28;20533;-55
2021/12/31 09:28:02;;;;;;;6.73;2.20;;;;;;;17.13;100.00;101549.75;5095015;28;20055;-50
2021/12/31 09:30:28;;;;;;;7.53;2.25;;;;;;;17.17;100.00;101556.34;5077241;28;20062;-54
2021/12/31 09:32:53;;;;;;;8.83;2.40;;;;;;;17.29;100.00;101546.44;5093838;28;20055;-54
2021/12/31 09:35:19;;;;;;;3.63;1.97;;;;;;;17.58;100.00;101545.94;5093488;28;20272;-57
2021/12/31 09:37:44;;;;;;;5.00;2.37;;;;;;;17.42;100.00;101572.56;5093670;28;20269;-52
2021/12/31 09:40:11;;;;;;;5.67;2.33;;;;;;;17.61;100.00;101572.53;5094239;28;20032;-55
2021/12/31 09:42:38;;;;;;;6.00;1.97;;;;;;;17.65;100.00;101572.94;5094790;28;20112;-53
2021/12/31 09:45:05;;;;;;;4.87;2.60;;;;;;;18.04;100.00;101581.66;5094876;28;20303;-52
2021/12/31 09:47:30;;;;;;;4.93;2.40;;;;;;;17.74;100.00;101602.16;5094960;28;20273;-53
2021/12/31 09:49:56;;;;;;;8.85;2.78;;;;;;;17.61;100.00;101595.03;5094434;28;20036;-52
2021/12/31 09:52:22;;;;;;;7.30;2.43;;;;;;;17.61;100.00;101595.03;5094534;28;20111;-53
2021/12/31 09:54:49;;;;;;;5.73;2.43;;;;;;;17.73;100.00;101602.38;5094929;28;20048;-55
2021/12/31 09:57:19;;;;;;;8.48;2.72;;;;;;;17.82;100.00;101622.69;5094674;28;20257;-56
2021/12/31 09:59:46;;;;;;;4.80;2.57;;;;;;;17.38;100.00;101605.66;5094622;28;20047;-54
2021/12/31 10:02:12;;;;;;;11.70;2.63;;;;;;;17.42;100.00;101634.75;5094830;28;20284;-54
2021/12/31 10:04:58;;;;;;;9.70;2.38;;;;;;;17.62;100.00;101591.28;5094243;28;20280;-56
2021/12/31 10:07:24;;;;;;;6.23;2.73;;;;;;;17.80;100.00;101602.31;5094340;28;20054;-52
2021/12/31 10:10:08;;;;;;;6.60;2.53;;;;;;;17.49;100.00;101580.56;5094106;28;20256;-53
2021/12/31 10:12:46;;;;;;;5.03;2.97;;;;;;;17.67;100.00;101570.81;5094227;28;20105;-52
2021/12/31 10:15:11;;;;;;;10.03;2.67;;;;;;;17.44;100.00;101580.44;5095142;28;20264;-51
2021/12/31 10:17:37;;;;;;;7.10;2.90;;;;;;;17.60;100.00;101582.56;5095691;28;20252;-51
2021/12/31 10:20:03;;;;;;;7.93;3.25;;;;;;;17.27;100.00;101582.88;5094527;28;20056;-52
2021/12/31 10:22:28;;;;;;;6.47;2.60;;;;;;;17.39;100.00;101591.09;5096531;28;20036;-54
2021/12/31 10:24:54;;;;;;;6.67;2.67;;;;;;;17.29;100.00;101591.59;5100096;28;20501;-55
2021/12/31 10:27:20;;;;;;;6.68;2.42;;;;;;;17.54;100.00;101579.91;5098246;28;20117;-51
2021/12/31 10:30:00;;;;;;;7.10;2.47;;;;;;;17.71;100.00;101599.06;5098088;28;20040;-56
2021/12/31 10:32:35;;;;;;;6.93;2.00;;;;;;;17.96;100.00;101584.63;5096327;28;20067;-52
2021/12/31 10:35:12;;;;;;;10.17;2.40;;;;;;;18.02;100.00;101579.19;5097787;28;20287;-51
2021/12/31 10:37:42;;;;;;;5.25;1.83;;;;;;;18.33;100.00;101596.25;5097792;28;20256;-54
2021/12/31 10:40:08;;;;;;;4.73;2.27;;;;;;;18.13;100.00;101574.88;5096852;28;20064;-52
2021/12/31 10:42:34;;;;;;;4.88;2.38;;;;;;;18.00;100.00;101605.63;5097856;28;20354;-54
2021/12/31 10:45:02;;;;;;;7.23;2.50;;;;;;;17.75;100.00;101584.03;5096435;28;20594;-52
2021/12/31 10:47:39;;;;;;;4.13;2.30;;;;;;;18.08;100.00;101590.16;5095871;28;20265;-51
2021/12/31 10:50:06;;;;;;;8.65;2.88;;;;;;;17.91;100.00;101563.69;5096168;28;20705;-51
2021/12/31 10:53:00;;;;;;;6.17;2.33;;;;;;;17.72;100.00;101584.50;5095393;28;20077;-51
2021/12/31 10:55:30;;;;;;;8.60;2.57;;;;;;;18.18;100.00;101558.78;5093943;28;20347;-53
2021/12/31 10:58:01;;;;;;;4.57;2.50;;;;;;;17.99;100.00;101573.34;5093664;28;20333;-51
2021/12/31 11:00:30;;;;;;;6.07;2.63;;;;;;;17.95;100.00;101551.34;5093286;28;20320;-52
2021/12/31 11:02:56;;;;;;;5.67;2.40;;;;;;;18.17;100.00;101543.59;5093316;28;20287;-54
2021/12/31 11:05:23;;;;;;;6.60;3.15;;;;;;;17.91;100.00;101561.78;5093318;28;20284;-50
2021/12/31 11:07:50;;;;;;;10.63;3.13;;;;;;;18.36;100.00;101540.84;5094179;28;20040;-52
2021/12/31 11:10:16;;;;;;;5.73;2.47;;;;;;;18.82;100.00;101537.63;5093358;28;20253;-54
2021/12/31 11:12:46;;;;;;;4.22;2.30;;;;;;;18.36;100.00;101497.50;5092451;28;20305;-53
2021/12/31 11:15:13;;;;;;;7.87;3.23;;;;;;;18.45;100.00;101495.28;5094778;28;20097;-53
2021/12/31 11:17:39;;;;;;;8.70;2.83;;;;;;;18.97;100.00;101500.06;5092322;28;20282;-55
2021/12/31 11:20:07;;;;;;;5.43;2.45;;;;;;;18.83;100.00;101490.50;5094494;28;20040;-55